createdAt,value
2018-11-28T00:01:50.426Z,22.53
2018-11-28T00:04:24.184Z,22.80
2018-11-28T00:06:52.670Z,23.40
2018-11-28T00:09:21.008Z,22.30
2018-11-28T00:11:49.355Z,23.80
2018-11-28T00:14:17.703Z,22.87
2018-11-28T00:16:46.103Z,22.23
2018-11-28T00:19:14.406Z,23.30
2018-11-28T00:21:42.781Z,23.80
2018-11-28T00:24:11.070Z,22.70
2018-11-28T00:26:39.379Z,23.30
2018-11-28T00:29:07.661Z,22.83
2018-11-28T00:31:36.000Z,22.33
2018-11-28T00:34:04.439Z,22.70
2018-11-28T00:36:32.750Z,21.57
2018-11-28T00:39:01.046Z,22.83
2018-11-28T00:41:29.410Z,21.17
2018-11-28T00:43:57.744Z,23.27
2018-11-28T00:46:26.092Z,21.97
2018-11-28T00:48:54.403Z,21.40
2018-11-28T00:51:22.753Z,21.27
2018-11-28T00:53:51.112Z,21.93
2018-11-28T00:56:19.448Z,22.80
2018-11-28T00:58:47.800Z,23.13
2018-11-28T01:01:16.163Z,22.63
2018-11-28T01:03:44.551Z,23.17
2018-11-28T01:06:12.866Z,21.67
2018-11-28T01:08:41.147Z,21.23
2018-11-28T01:11:09.537Z,22.97
2018-11-28T01:13:37.841Z,21.57
2018-11-28T01:16:06.852Z,21.93
2018-11-28T01:18:35.129Z,22.00
2018-11-28T01:21:03.459Z,21.50
2018-11-28T01:23:31.792Z,23.10
2018-11-28T01:26:00.117Z,21.60
2018-11-28T01:28:28.408Z,22.20
2018-11-28T01:30:56.756Z,21.67
2018-11-28T01:33:25.113Z,22.07
2018-11-28T01:35:53.481Z,20.73
2018-11-28T01:38:21.823Z,21.80
2018-11-28T01:40:50.220Z,21.93
2018-11-28T01:43:18.524Z,22.20
2018-11-28T01:45:46.891Z,21.43
2018-11-28T01:48:15.251Z,22.20
2018-11-28T01:50:43.567Z,22.00
2018-11-28T01:53:11.900Z,21.17
2018-11-28T01:55:40.243Z,22.50
2018-11-28T01:58:08.571Z,22.43
2018-11-28T02:00:36.897Z,22.57
2018-11-28T02:03:05.263Z,22.37
2018-11-28T02:05:33.684Z,22.47
2018-11-28T02:08:02.105Z,21.80
2018-11-28T02:10:30.490Z,22.70
2018-11-28T02:12:58.889Z,22.23
2018-11-28T02:15:27.946Z,21.93
2018-11-28T02:17:57.256Z,22.03
2018-11-28T02:20:25.583Z,21.30
2018-11-28T02:22:54.023Z,22.83
2018-11-28T02:25:22.355Z,22.43
2018-11-28T02:27:50.768Z,21.87
2018-11-28T02:30:19.976Z,22.07
2018-11-28T02:32:49.223Z,21.23
2018-11-28T02:35:18.269Z,21.80
2018-11-28T02:37:46.735Z,22.10
2018-11-28T02:40:21.823Z,21.40
2018-11-28T02:42:50.680Z,21.10
2018-11-28T02:45:22.024Z,20.37
2018-11-28T02:47:50.997Z,21.47
2018-11-28T02:50:19.416Z,20.47
2018-11-28T02:52:47.759Z,22.40
2018-11-28T02:55:16.961Z,20.47
2018-11-28T02:57:46.367Z,21.63
2018-11-28T03:00:16.052Z,19.87
2018-11-28T03:02:44.482Z,21.53
2018-11-28T03:05:13.388Z,20.77
2018-11-28T03:07:41.780Z,20.57
2018-11-28T03:10:12.776Z,20.70
2018-11-28T03:12:41.156Z,21.93
2018-11-28T03:15:11.336Z,22.50
2018-11-28T03:17:39.782Z,21.03
2018-11-28T03:20:09.651Z,20.33
2018-11-28T03:22:38.051Z,21.47
2018-11-28T03:25:08.103Z,21.13
2018-11-28T03:27:36.464Z,20.73
2018-11-28T03:30:08.876Z,19.87
2018-11-28T03:32:37.209Z,20.30
2018-11-28T03:35:06.214Z,20.20
2018-11-28T03:37:34.545Z,21.33
2018-11-28T03:40:02.983Z,21.47
2018-11-28T03:42:31.457Z,21.27
2018-11-28T03:44:59.780Z,21.23
2018-11-28T03:47:28.117Z,20.23
2018-11-28T03:49:56.416Z,21.70
2018-11-28T03:52:24.755Z,21.40
2018-11-28T03:54:53.044Z,21.47
2018-11-28T03:57:21.449Z,20.33
2018-11-28T03:59:49.735Z,21.10
2018-11-28T04:02:18.070Z,20.93
2018-11-28T04:04:52.989Z,21.60
2018-11-28T04:07:21.354Z,21.47
2018-11-28T04:09:49.701Z,21.93
2018-11-28T04:12:18.172Z,22.50
2018-11-28T04:14:46.556Z,21.03
2018-11-28T04:17:14.897Z,21.17
2018-11-28T04:19:43.345Z,20.47
2018-11-28T04:22:11.678Z,21.10
2018-11-28T04:24:40.016Z,21.00
2018-11-28T04:27:08.463Z,20.47
2018-11-28T04:29:36.768Z,20.03
2018-11-28T04:32:05.138Z,21.23
2018-11-28T04:34:33.540Z,20.27
2018-11-28T04:37:01.887Z,21.00
2018-11-28T04:39:30.277Z,21.23
2018-11-28T04:41:58.626Z,21.13
2018-11-28T04:44:26.932Z,20.47
2018-11-28T04:46:56.316Z,21.67
2018-11-28T04:49:24.676Z,21.23
2018-11-28T04:51:53.026Z,20.23
2018-11-28T04:54:21.315Z,20.03
2018-11-28T04:56:49.627Z,19.67
2018-11-28T04:59:18.016Z,19.27
2018-11-28T05:01:46.400Z,19.37
2018-11-28T05:04:14.893Z,19.70
2018-11-28T05:07:47.596Z,19.13
2018-11-28T05:10:31.973Z,17.37
2018-11-28T05:13:00.823Z,18.90
2018-11-28T05:19:01.618Z,18.53
2018-11-28T05:21:35.335Z,19.07
2018-11-28T05:24:09.572Z,18.93
2018-11-28T05:26:43.046Z,18.43
2018-11-28T05:29:15.234Z,19.60
2018-11-28T05:31:50.054Z,19.13
2018-11-28T05:34:18.397Z,18.57
2018-11-28T05:36:46.720Z,19.70
2018-11-28T05:39:15.026Z,19.03
2018-11-28T05:41:43.490Z,19.00
2018-11-28T05:44:11.877Z,19.20
2018-11-28T05:46:40.292Z,18.97
2018-11-28T05:49:08.589Z,18.57
2018-11-28T05:51:36.968Z,20.87
2018-11-28T05:54:05.405Z,19.20
2018-11-28T05:56:33.761Z,20.07
2018-11-28T05:59:03.442Z,18.80
2018-11-28T06:01:30.549Z,19.23
2018-11-28T06:03:58.972Z,18.77
2018-11-28T06:07:30.723Z,19.33
2018-11-28T06:09:59.461Z,19.93
2018-11-28T06:12:28.237Z,19.30
2018-11-28T06:14:56.801Z,18.87
2018-11-28T06:17:25.198Z,20.90
2018-11-28T06:19:53.597Z,19.63
2018-11-28T06:22:21.997Z,19.43
2018-11-28T06:24:50.451Z,19.10
2018-11-28T06:27:18.869Z,21.00
2018-11-28T06:29:47.418Z,19.17
2018-11-28T06:32:16.258Z,19.37
2018-11-28T06:34:44.597Z,20.20
2018-11-28T06:37:13.080Z,19.07
2018-11-28T06:39:41.773Z,19.37
2018-11-28T06:42:10.384Z,20.03
2018-11-28T06:44:39.651Z,20.50
2018-11-28T06:47:08.329Z,19.60
2018-11-28T06:49:37.459Z,19.73
2018-11-28T06:52:05.804Z,20.77
2018-11-28T06:54:34.106Z,20.77
2018-11-28T06:57:02.457Z,21.10
2018-11-28T06:59:30.755Z,19.87
2018-11-28T07:01:59.203Z,22.03
2018-11-28T07:04:27.716Z,21.17
2018-11-28T07:06:56.096Z,21.87
2018-11-28T07:09:24.426Z,22.10
2018-11-28T07:11:52.809Z,20.53
2018-11-28T07:14:21.130Z,21.10
2018-11-28T07:16:49.573Z,21.13
2018-11-28T07:19:18.002Z,20.50
2018-11-28T07:21:58.356Z,21.13
2018-11-28T07:24:27.345Z,21.00
2018-11-28T07:26:55.791Z,20.50
2018-11-28T07:29:24.259Z,20.77
2018-11-28T07:31:52.749Z,20.10
2018-11-28T07:34:21.193Z,22.07
2018-11-28T07:36:49.633Z,21.80
2018-11-28T07:39:17.989Z,21.23
2018-11-28T07:41:46.362Z,20.93
2018-11-28T07:44:14.811Z,20.20
2018-11-28T07:46:43.318Z,21.10
2018-11-28T07:49:11.690Z,21.13
2018-11-28T07:51:40.038Z,20.83
2018-11-28T07:54:09.640Z,21.63
2018-11-28T07:56:44.698Z,22.00
2018-11-28T07:59:20.703Z,21.97
2018-11-28T08:01:57.099Z,21.40
2018-11-28T08:04:29.001Z,20.47
2018-11-28T08:06:58.790Z,20.40
2018-11-28T08:09:32.206Z,20.70
2018-11-28T08:12:02.979Z,22.87
2018-11-28T08:14:36.785Z,23.40
2018-11-28T08:17:05.473Z,22.10
2018-11-28T08:19:36.209Z,20.97
2018-11-28T08:22:06.411Z,22.23
2018-11-28T08:24:39.228Z,21.70
2018-11-28T08:27:07.844Z,22.23
2018-11-28T08:29:36.369Z,22.17
2018-11-28T08:32:07.847Z,20.93
2018-11-28T08:34:36.253Z,21.37
2018-11-28T08:37:07.698Z,22.17
2018-11-28T08:39:40.664Z,22.30
2018-11-28T08:42:11.665Z,20.70
2018-11-28T08:44:40.067Z,21.17
2018-11-28T08:47:08.654Z,22.73
2018-11-28T08:49:37.196Z,21.63
2018-11-28T08:52:08.489Z,23.00
2018-11-28T08:54:37.788Z,23.70
2018-11-28T08:57:08.631Z,24.37
2018-11-28T09:01:03.473Z,22.83
2018-11-28T09:03:31.957Z,23.40
2018-11-28T09:06:03.363Z,23.57
2018-11-28T09:08:32.447Z,23.30
2018-11-28T09:11:01.090Z,22.87
2018-11-28T09:13:30.718Z,24.80
2018-11-28T09:16:00.149Z,26.97
2018-11-28T09:18:28.543Z,27.07
2018-11-28T09:20:57.197Z,27.70
2018-11-28T09:23:26.119Z,29.23
2018-11-28T09:25:54.550Z,25.87
2018-11-28T09:28:23.065Z,24.63
2018-11-28T09:30:51.716Z,24.13
2018-11-28T09:33:20.534Z,23.00
2018-11-28T09:35:50.165Z,23.13
2018-11-28T09:38:18.769Z,21.70
2018-11-28T09:40:47.233Z,23.13
2018-11-28T09:43:15.644Z,22.50
2018-11-28T09:45:44.123Z,21.50
2018-11-28T09:48:13.108Z,21.30
2018-11-28T09:50:42.765Z,21.00
2018-11-28T09:53:12.050Z,21.97
2018-11-28T09:55:42.650Z,20.50
2018-11-28T09:58:11.227Z,19.33
2018-11-28T10:00:40.896Z,21.67
2018-11-28T10:03:09.281Z,20.90
2018-11-28T10:05:39.065Z,19.80
2018-11-28T10:08:07.575Z,20.13
2018-11-28T10:10:37.304Z,19.97
2018-11-28T10:13:07.762Z,20.93
2018-11-28T10:15:36.262Z,20.10
2018-11-28T10:18:06.485Z,19.87
2018-11-28T10:20:34.937Z,19.93
2018-11-28T10:23:04.223Z,19.37
2018-11-28T10:25:33.291Z,19.97
2018-11-28T10:28:05.680Z,19.87
2018-11-28T10:30:40.315Z,18.93
2018-11-28T10:33:13.407Z,20.37
2018-11-28T10:35:42.730Z,20.97
2018-11-28T10:38:16.586Z,19.07
2018-11-28T10:40:46.168Z,19.33
2018-11-28T10:43:14.839Z,19.57
2018-11-28T10:45:46.329Z,19.20
2018-11-28T10:48:15.717Z,19.87
2018-11-28T10:50:49.642Z,19.83
2018-11-28T10:53:18.425Z,19.03
2018-11-28T10:55:47.250Z,20.07
2018-11-28T10:58:16.733Z,18.63
2018-11-28T11:00:52.995Z,19.03
2018-11-28T11:03:26.534Z,18.03
2018-11-28T11:06:00.241Z,20.00
2018-11-28T11:08:32.718Z,19.40
2018-11-28T11:11:06.647Z,18.33
2018-11-28T11:13:41.733Z,19.20
2018-11-28T11:16:10.170Z,18.63
2018-11-28T11:18:39.926Z,17.60
2018-11-28T11:21:08.373Z,18.90
2018-11-28T11:23:36.789Z,19.00
2018-11-28T11:26:06.367Z,17.67
2018-11-28T11:28:34.896Z,18.47
2018-11-28T11:31:03.630Z,17.73
2018-11-28T11:33:32.050Z,17.17
2018-11-28T11:36:00.551Z,18.10
2018-11-28T11:38:28.904Z,17.33
2018-11-28T11:40:58.104Z,17.60
2018-11-28T11:43:26.927Z,18.00
2018-11-28T11:45:55.959Z,18.03
2018-11-28T11:48:26.437Z,17.63
2018-11-28T11:50:55.731Z,17.27
2018-11-28T11:53:24.923Z,16.57
2018-11-28T11:55:53.842Z,17.97
2018-11-28T11:58:22.229Z,16.90
2018-11-28T12:00:50.619Z,16.90
2018-11-28T12:03:19.084Z,17.27
2018-11-28T12:05:51.821Z,16.90
2018-11-28T12:08:23.397Z,17.37
2018-11-28T12:10:54.761Z,17.20
2018-11-28T12:13:25.132Z,16.83
2018-11-28T12:16:02.012Z,16.70
2018-11-28T12:18:53.361Z,16.60
2018-11-28T12:21:46.231Z,17.07
2018-11-28T12:24:15.561Z,16.00
2018-11-28T12:26:44.034Z,17.03
2018-11-28T12:29:14.598Z,16.03
2018-11-28T12:31:44.877Z,18.07
2018-11-28T12:34:19.330Z,16.43
2018-11-28T12:36:47.954Z,17.07
2018-11-28T12:39:17.945Z,16.60
2018-11-28T12:41:51.621Z,17.00
2018-11-28T12:44:21.909Z,16.33
2018-11-28T12:46:50.272Z,15.53
2018-11-28T12:49:18.703Z,16.13
2018-11-28T12:51:53.880Z,16.90
2018-11-28T12:54:23.279Z,16.27
2018-11-28T12:56:58.646Z,16.60
2018-11-28T12:59:26.975Z,17.00
2018-11-28T13:01:56.430Z,16.57
2018-11-28T13:04:32.150Z,16.90
2018-11-28T13:07:11.245Z,17.17
2018-11-28T13:09:39.615Z,17.00
2018-11-28T13:12:07.927Z,16.97
2018-11-28T13:14:36.220Z,17.87
2018-11-28T13:17:06.072Z,17.93
2018-11-28T13:19:34.530Z,17.37
2018-11-28T13:22:02.916Z,25.47
2018-11-28T13:24:31.172Z,20.67
2018-11-28T13:26:59.614Z,20.27
2018-11-28T13:29:28.171Z,20.43
2018-11-28T13:31:56.500Z,18.80
2018-11-28T13:34:24.891Z,19.13
2018-11-28T13:36:53.184Z,17.93
2018-11-28T13:39:22.124Z,17.13
2018-11-28T13:41:50.540Z,16.73
2018-11-28T13:44:18.831Z,17.37
2018-11-28T13:46:52.514Z,16.13
2018-11-28T13:49:20.903Z,16.83
2018-11-28T13:51:49.199Z,17.10
2018-11-28T13:54:21.353Z,17.50
2018-11-28T13:57:04.689Z,17.30
2018-11-28T13:59:15.959Z,17.37
2018-11-28T14:01:45.578Z,16.90
2018-11-28T14:04:13.852Z,17.73
2018-11-28T14:06:42.225Z,16.03
2018-11-28T14:09:10.527Z,17.23
2018-11-28T14:11:39.885Z,17.80
2018-11-28T14:14:09.028Z,16.20
2018-11-28T14:16:37.308Z,16.93
2018-11-28T14:19:05.810Z,17.13
2018-11-28T14:21:34.211Z,17.30
2018-11-28T14:24:02.631Z,17.53
2018-11-28T14:26:31.288Z,15.63
2018-11-28T14:28:59.528Z,16.83
2018-11-28T14:31:27.811Z,15.40
2018-11-28T14:33:56.084Z,15.23
2018-11-28T14:36:24.429Z,16.63
2018-11-28T14:38:58.080Z,15.57
2018-11-28T14:41:26.409Z,16.87
2018-11-28T14:43:54.773Z,16.27
2018-11-28T14:46:23.057Z,16.17
2018-11-28T14:48:51.604Z,16.90
2018-11-28T14:51:19.884Z,15.87
2018-11-28T14:53:48.576Z,15.07
2018-11-28T14:56:16.484Z,15.77
2018-11-28T14:58:44.783Z,15.97
2018-11-28T15:01:13.047Z,16.30
2018-11-28T15:03:41.356Z,16.33
2018-11-28T15:06:12.488Z,16.27
2018-11-28T15:08:40.767Z,16.97
2018-11-28T15:11:11.006Z,16.53
2018-11-28T15:13:39.905Z,17.27
2018-11-28T15:16:08.255Z,17.77
2018-11-28T15:18:36.566Z,17.73
2018-11-28T15:21:05.352Z,17.17
2018-11-28T15:23:33.699Z,17.37
2018-11-28T15:26:02.015Z,17.43
2018-11-28T15:28:30.384Z,17.53
2018-11-28T15:30:58.863Z,19.43
2018-11-28T15:33:27.401Z,19.03
2018-11-28T15:35:55.792Z,19.17
2018-11-28T15:38:24.193Z,18.97
2018-11-28T15:40:52.512Z,19.03
2018-11-28T15:43:27.570Z,19.10
2018-11-28T15:45:55.862Z,19.53
2018-11-28T15:48:24.150Z,19.43
2018-11-28T15:50:56.821Z,19.37
2018-11-28T15:53:25.155Z,17.77
2018-11-28T15:55:53.428Z,19.67
2018-11-28T15:58:21.700Z,17.83
2018-11-28T16:00:49.986Z,18.00
2018-11-28T16:03:19.101Z,18.43
2018-11-28T16:05:47.433Z,19.63
2018-11-28T16:08:15.756Z,19.30
2018-11-28T16:10:44.601Z,19.73
2018-11-28T16:13:14.608Z,17.20
2018-11-28T16:15:56.922Z,18.20
2018-11-28T16:18:25.247Z,18.50
2018-11-28T16:20:53.551Z,17.40
2018-11-28T16:23:21.992Z,22.63
2018-11-28T16:25:50.273Z,18.93
2018-11-28T16:28:18.789Z,18.57
2018-11-28T16:30:47.233Z,18.33
2018-11-28T16:33:15.559Z,18.93
2018-11-28T16:35:43.808Z,18.20
2018-11-28T16:38:12.220Z,19.20
2018-11-28T16:40:40.487Z,19.10
2018-11-28T16:43:08.774Z,19.20
2018-11-28T16:45:37.057Z,20.73
2018-11-28T16:48:05.819Z,23.87
2018-11-28T16:50:35.096Z,21.30
2018-11-28T16:53:03.474Z,17.87
2018-11-28T16:55:31.767Z,18.50
2018-11-28T16:58:00.266Z,17.17
2018-11-28T17:00:29.879Z,18.50
2018-11-28T17:02:58.332Z,17.63
2018-11-28T17:05:26.608Z,18.47
2018-11-28T17:07:54.966Z,17.43
2018-11-28T17:10:26.215Z,19.03
2018-11-28T17:12:55.104Z,18.60
2018-11-28T17:15:23.439Z,17.47
2018-11-28T17:17:51.744Z,18.30
2018-11-28T17:20:21.057Z,18.27
2018-11-28T17:22:50.306Z,18.07
2018-11-28T17:25:26.587Z,17.97
2018-11-28T17:27:54.969Z,18.10
2018-11-28T17:30:24.635Z,18.03
2018-11-28T17:32:52.993Z,19.20
2018-11-28T17:35:21.351Z,20.27
2018-11-28T17:37:49.672Z,17.83
2018-11-28T17:40:27.238Z,19.60
2018-11-28T17:42:56.659Z,19.13
2018-11-28T17:45:25.438Z,18.40
2018-11-28T17:47:53.825Z,18.60
2018-11-28T17:50:24.164Z,18.50
2018-11-28T17:52:56.514Z,18.07
2018-11-28T17:55:25.358Z,19.90
2018-11-28T17:57:53.650Z,17.17
2018-11-28T18:00:22.001Z,18.97
2018-11-28T18:02:50.359Z,17.67
2018-11-28T18:05:18.623Z,19.97
2018-11-28T18:07:46.942Z,19.17
2018-11-28T18:10:16.643Z,19.27
2018-11-28T18:12:56.155Z,18.50
2018-11-28T18:15:24.459Z,18.33
2018-11-28T18:17:54.845Z,18.37
2018-11-28T18:20:23.123Z,18.73
2018-11-28T18:22:51.436Z,19.03
2018-11-28T18:25:19.953Z,19.60
2018-11-28T18:27:48.280Z,17.97
2018-11-28T18:30:16.580Z,18.23
2018-11-28T18:32:45.500Z,17.90
2018-11-28T18:35:13.795Z,19.33
2018-11-28T18:37:42.062Z,19.77
2018-11-28T18:40:12.169Z,18.53
2018-11-28T18:42:41.339Z,21.57
2018-11-28T18:45:12.384Z,19.90
2018-11-28T18:47:40.684Z,19.73
2018-11-28T18:50:11.068Z,19.40
2018-11-28T18:52:40.247Z,19.60
2018-11-28T18:55:16.492Z,19.93
2018-11-28T18:57:40.951Z,20.03
2018-11-28T19:00:11.576Z,19.20
2018-11-28T19:02:40.455Z,18.60
2018-11-28T19:05:08.866Z,19.07
2018-11-28T19:07:37.143Z,19.23
2018-11-28T19:10:26.241Z,18.73
2018-11-28T19:12:52.474Z,18.53
2018-11-28T19:15:25.655Z,17.80
2018-11-28T19:17:54.667Z,17.17
2018-11-28T19:20:23.655Z,17.70
2018-11-28T19:22:53.872Z,18.47
2018-11-28T19:25:25.168Z,18.63
2018-11-28T19:27:53.643Z,18.47
2018-11-28T19:30:31.577Z,18.23
2018-11-28T19:33:00.126Z,18.17
2018-11-28T19:41:36.431Z,18.57
2018-11-28T19:44:23.555Z,18.90
2018-11-28T19:46:54.347Z,17.80
2018-11-28T19:49:22.907Z,17.20
2018-11-28T19:51:52.700Z,17.17
2018-11-28T19:54:21.443Z,17.30
2018-11-28T19:56:50.307Z,17.63
2018-11-28T19:59:18.902Z,17.57
2018-11-28T20:01:47.771Z,18.40
2018-11-28T20:04:16.288Z,17.63
2018-11-28T20:06:45.330Z,19.93
2018-11-28T20:09:21.527Z,18.37
2018-11-28T20:11:50.334Z,17.47
2018-11-28T20:14:18.730Z,18.37
2018-11-28T20:16:47.857Z,18.60
2018-11-28T20:19:17.660Z,18.83
2018-11-28T20:21:45.037Z,18.77
2018-11-28T20:24:13.664Z,18.37
2018-11-28T20:26:42.128Z,17.03
2018-11-28T20:29:11.057Z,18.57
2018-11-28T20:31:40.080Z,17.77
2018-11-28T20:34:09.071Z,17.97
2018-11-28T20:36:37.474Z,19.30
2018-11-28T20:39:09.003Z,17.87
2018-11-28T20:41:37.399Z,17.77
2018-11-28T20:44:06.202Z,17.70
2018-11-28T20:46:36.552Z,17.83
2018-11-28T20:49:05.781Z,18.13
2018-11-28T20:51:35.934Z,17.20
2018-11-28T20:54:04.610Z,17.33
2018-11-28T20:56:33.979Z,17.83
2018-11-28T20:59:02.906Z,17.47
2018-11-28T21:01:32.160Z,18.13
2018-11-28T21:04:00.620Z,18.30
2018-11-28T21:06:29.024Z,17.00
2018-11-28T21:08:57.824Z,17.40
2018-11-28T21:11:26.285Z,18.80
2018-11-28T21:13:54.775Z,17.60
2018-11-28T21:16:23.192Z,18.23
2018-11-28T21:18:51.999Z,18.03
2018-11-28T21:21:27.467Z,18.07
2018-11-28T21:23:53.295Z,17.80
2018-11-28T21:27:07.130Z,17.60
2018-11-28T21:29:36.874Z,17.47
2018-11-28T21:32:05.473Z,17.27
2018-11-28T21:34:34.525Z,17.23
2018-11-28T21:37:04.456Z,17.40
2018-11-28T21:39:32.796Z,16.97
2018-11-28T21:42:01.116Z,16.97
2018-11-28T21:44:29.807Z,18.13
2018-11-28T21:46:58.201Z,17.90
2018-11-28T21:49:26.831Z,17.53
2018-11-28T21:51:55.316Z,16.73
2018-11-28T21:54:24.238Z,17.87
2018-11-28T21:56:53.728Z,18.27
2018-11-28T21:59:22.168Z,18.23
2018-11-28T22:01:50.675Z,17.20
2018-11-28T22:04:19.456Z,18.23
2018-11-28T22:06:48.082Z,16.97
2018-11-28T22:09:17.047Z,17.53
2018-11-28T22:11:46.112Z,17.00
2018-11-28T22:14:14.613Z,17.13
2018-11-28T22:16:43.034Z,17.90
2018-11-28T22:19:11.444Z,17.07
2018-11-28T22:21:39.819Z,17.37
2018-11-28T22:24:08.225Z,17.00
2018-11-28T22:26:36.600Z,17.20
2018-11-28T22:29:05.089Z,17.50
2018-11-28T22:31:33.456Z,18.43
2018-11-28T22:34:01.831Z,16.50
2018-11-28T22:36:30.138Z,16.10
2018-11-28T22:38:58.467Z,15.73
2018-11-28T22:41:26.812Z,16.37
2018-11-28T22:43:55.262Z,16.93
2018-11-28T22:46:23.613Z,16.33
2018-11-28T22:48:52.103Z,16.67
2018-11-28T22:51:20.480Z,16.53
2018-11-28T22:53:49.146Z,15.67
2018-11-28T22:56:17.441Z,16.73
2018-11-28T22:58:46.061Z,16.27
2018-11-28T23:01:14.379Z,16.43
2018-11-28T23:03:42.869Z,16.47
2018-11-28T23:06:11.236Z,16.33
2018-11-28T23:08:39.733Z,16.83
2018-11-28T23:11:08.046Z,16.97
2018-11-28T23:13:36.351Z,17.37
2018-11-28T23:16:05.069Z,17.73
2018-11-28T23:18:33.731Z,16.80
2018-11-28T23:21:02.046Z,16.60
2018-11-28T23:23:30.420Z,16.43
2018-11-28T23:25:58.727Z,16.93
2018-11-28T23:28:27.092Z,17.10
2018-11-28T23:30:55.493Z,15.70
2018-11-28T23:33:23.814Z,16.43
2018-11-28T23:35:52.225Z,15.67
2018-11-28T23:38:20.544Z,16.77
2018-11-28T23:40:48.968Z,16.87
2018-11-28T23:43:17.593Z,15.93
2018-11-28T23:45:47.378Z,17.60
2018-11-28T23:48:15.692Z,16.33
2018-11-28T23:50:44.044Z,17.80
2018-11-28T23:53:12.488Z,16.10
2018-11-28T23:55:40.790Z,17.97
2018-11-28T23:58:09.214Z,17.77
